Aeroporto :
LOGIN :

Iscrizione | Disclaimer

   EN    FR    IT 

 










Sommario :    VFR   VFR Marginale   IFR   IFR Intensivo   IFR Molto Intensivo
Visibilità : 
Base nubi : 
>= 8 km
>= 3000ft
5 / 8 km
1000 / 3000 ft
1500m / 5 km
500 / 1000 ft
800 / 1500m
200 / 500 ft
< 800m
< 200 ft
Simboli :   Temporali  Nebbia  Neve Forte  Precipitazioni Forti  Vento > 20 kt
SIGMETs :   Varie  Temporali  Ghiacco  Turbolenza  Onda orograficha  Ceneri Vulcaniche






- Altitudine del aeroporto : 100 ft


EBDT - Schaffen

ULTIMO METAR :
  • 300255Z AUTO 01003KT 9999 SCT090/// BKN100/// 12/03 Q1023 BLU

METARs OBSOLETI :
  • 300225Z AUTO 08003KT 9999 SCT085/// BKN100/// OVC110/// 13/03 Q1023 BLU
  • 300155Z AUTO 09003KT 9999 SCT085/// BKN100/// OVC110/// 13/03 Q1023 BLU
  • 300125Z AUTO 06003KT 9999 FEW080/// BKN095/// BKN110/// 13/03 Q1023 BLU
  • 300055Z AUTO 06003KT 9999 FEW075/// BKN095/// OVC110/// 13/03 Q1023 BLU
  • 300025Z AUTO 04005KT 9999 FEW080/// BKN095/// OVC110/// 13/02 Q1023 BLU

Previsioni scadute.



MetMap, La meteo Aeronautica in un colpo d'occhio ! - Copyright ORBIFLY Dicembre 2007 - Disclaimer

ORBIFLY MET'MAP TEAM :

Programmazione e sviluppo : Alexandra Zaïnal
Concezione : Baudouin d'Aumeries
Aiuto per la programmazione : Marc-Olivier Méhu
Supporto tecnico e logistico : Manuel Goepfert
Aiuto per la traduzione : Arnaldo La Scala

Contatto : metmap@orbifly.com




FONTI E CREDITI :

   NOAA